createdAt,value
2022-11-29T05:48:21.965Z,1.32
2022-11-29T05:53:35.316Z,1.27
2022-11-29T05:58:56.805Z,1.26
2022-11-29T06:04:04.580Z,1.40
2022-11-29T06:09:17.685Z,1.37
2022-11-29T06:14:41.499Z,1.36
2022-11-29T06:20:13.364Z,1.44
2022-11-29T06:25:17.118Z,1.49
2022-11-29T06:30:30.046Z,1.64
2022-11-29T06:35:45.844Z,1.63
2022-11-29T06:40:48.723Z,1.63
2022-11-29T06:45:54.230Z,1.60
2022-11-29T06:51:08.536Z,1.61
2022-11-29T06:56:25.346Z,1.59
2022-11-29T07:01:30.360Z,1.69
2022-11-29T07:06:35.084Z,1.71
2022-11-29T07:11:37.663Z,1.69
2022-11-29T07:17:09.503Z,1.73
2022-11-29T07:22:24.889Z,1.79
2022-11-29T07:27:42.071Z,1.87
2022-11-29T07:33:12.089Z,1.92
2022-11-29T07:38:20.149Z,1.79
2022-11-29T07:43:52.713Z,1.75
2022-11-29T07:48:55.147Z,1.92
2022-11-29T07:53:57.204Z,1.90
2022-11-29T07:58:59.341Z,1.86
2022-11-29T08:04:01.391Z,1.71
2022-11-29T08:09:03.950Z,1.62
2022-11-29T08:14:06.328Z,1.72
2022-11-29T08:19:08.313Z,1.78
2022-11-29T08:24:10.458Z,1.81
2022-11-29T08:29:12.551Z,1.86
2022-11-29T08:34:14.558Z,1.95
2022-11-29T08:39:17.083Z,1.81
2022-11-29T08:44:19.116Z,1.93
2022-11-29T08:49:21.297Z,1.96
2022-11-29T08:54:23.313Z,2.03
2022-11-29T08:59:25.306Z,2.21
2022-11-29T09:04:27.365Z,2.24
2022-11-29T09:09:29.413Z,2.22
2022-11-29T09:14:31.497Z,2.09
2022-11-29T09:19:33.562Z,2.18
2022-11-29T09:24:35.585Z,2.09
2022-11-29T09:29:37.870Z,2.24
2022-11-29T09:34:42.266Z,2.17
2022-11-29T09:39:44.851Z,2.08
2022-11-29T09:45:09.988Z,2.14
2022-11-29T09:50:30.613Z,2.13
2022-11-29T09:56:04.165Z,2.25
2022-11-29T10:01:10.913Z,2.34
2022-11-29T10:06:36.750Z,2.49
2022-11-29T10:11:42.197Z,2.73
2022-11-29T10:16:52.766Z,2.80
2022-11-29T10:22:01.970Z,2.71
2022-11-29T10:27:14.015Z,2.71
2022-11-29T10:32:16.741Z,2.67
2022-11-29T10:37:21.510Z,2.84
2022-11-29T10:42:44.855Z,3.12
2022-11-29T10:47:50.134Z,3.02
2022-11-29T10:52:59.872Z,2.95
2022-11-29T10:58:13.102Z,2.86
2022-11-29T11:03:23.903Z,2.79
2022-11-29T11:08:27.657Z,2.78
2022-11-29T11:13:31.934Z,2.75
2022-11-29T11:18:34.298Z,2.73
2022-11-29T11:23:42.884Z,2.80
2022-11-29T11:29:00.271Z,2.72
2022-11-29T11:34:35.156Z,2.72
2022-11-29T11:39:37.179Z,2.77
2022-11-29T11:44:49.430Z,2.77
2022-11-29T11:50:00.352Z,2.92
2022-11-29T11:55:07.134Z,2.81
2022-11-29T12:01:02.959Z,2.83
2022-11-29T12:06:14.816Z,2.73
2022-11-29T12:11:18.755Z,2.70
2022-11-29T12:16:34.577Z,2.66
2022-11-29T12:21:42.379Z,2.59
2022-11-29T12:27:00.535Z,2.66
2022-11-29T12:32:24.677Z,2.58
2022-11-29T12:37:39.910Z,2.60
2022-11-29T12:43:10.832Z,2.63
2022-11-29T12:48:28.128Z,2.65
2022-11-29T12:53:57.814Z,2.66
2022-11-29T12:59:20.846Z,2.64
2022-11-29T13:04:59.872Z,2.76
2022-11-29T13:10:21.135Z,2.86
2022-11-29T13:16:01.228Z,2.91
2022-11-29T13:21:20.174Z,2.84
2022-11-29T13:26:25.666Z,2.87
2022-11-29T13:31:28.188Z,3.03
2022-11-29T13:37:06.640Z,3.14
2022-11-29T13:42:45.451Z,3.20
2022-11-29T13:47:56.057Z,3.19
2022-11-29T13:53:04.519Z,3.19
2022-11-29T13:58:19.080Z,3.15
2022-11-29T14:03:24.032Z,3.18
2022-11-29T14:09:02.391Z,3.15
2022-11-29T14:14:07.587Z,3.06
2022-11-29T14:19:09.929Z,3.24
2022-11-29T14:24:36.977Z,3.37
2022-11-29T14:29:50.943Z,3.35
2022-11-29T14:35:11.472Z,3.29
2022-11-29T14:40:26.611Z,3.25
2022-11-29T14:45:35.196Z,3.18
2022-11-29T14:50:40.423Z,3.19
2022-11-29T14:55:43.019Z,3.18
2022-11-29T15:00:47.685Z,3.21
2022-11-29T15:06:12.212Z,3.20
2022-11-29T15:11:33.905Z,3.15
2022-11-29T15:17:07.260Z,3.17
2022-11-29T15:22:27.661Z,3.22
2022-11-29T15:27:29.704Z,3.14
2022-11-29T15:32:32.702Z,3.26
2022-11-29T15:37:35.501Z,3.17
2022-11-29T15:42:57.980Z,3.27
2022-11-29T15:48:16.135Z,3.26
2022-11-29T15:53:38.806Z,3.25
2022-11-29T15:58:41.254Z,3.14
2022-11-29T16:03:46.362Z,3.14
2022-11-29T16:08:49.973Z,3.06
2022-11-29T16:14:03.263Z,3.04
2022-11-29T16:19:30.458Z,3.03
2022-11-29T16:24:34.587Z,3.13
2022-11-29T16:29:41.558Z,3.02
2022-11-29T16:34:44.750Z,3.02
2022-11-29T16:39:49.645Z,3.15
2022-11-29T16:44:58.144Z,3.18
2022-11-29T16:50:03.050Z,3.13
2022-11-29T16:55:05.298Z,3.08
2022-11-29T17:00:23.224Z,3.14
2022-11-29T17:05:25.982Z,3.13
2022-11-29T17:10:28.870Z,3.02
2022-11-29T17:15:30.953Z,3.09
2022-11-29T17:20:33.871Z,3.20
2022-11-29T17:25:36.243Z,3.12
2022-11-29T17:30:38.277Z,3.13
2022-11-29T17:35:40.293Z,3.14
2022-11-29T17:40:42.496Z,3.22
2022-11-29T17:45:44.532Z,3.27
2022-11-29T17:50:46.646Z,3.24
2022-11-29T17:55:48.806Z,3.29
2022-11-29T18:00:50.876Z,3.36
2022-11-29T18:05:52.898Z,3.37
2022-11-29T18:11:09.934Z,3.27
2022-11-29T18:16:17.901Z,3.34
2022-11-29T18:21:19.937Z,3.37
2022-11-29T18:26:24.146Z,3.32
2022-11-29T18:31:28.978Z,3.25
2022-11-29T18:36:34.121Z,3.26
2022-11-29T18:41:37.815Z,3.19
2022-11-29T18:46:43.034Z,3.28
2022-11-29T18:51:46.310Z,3.19
2022-11-29T18:56:50.728Z,3.17
2022-11-29T19:01:52.899Z,3.27
2022-11-29T19:06:54.967Z,3.25
2022-11-29T19:11:56.999Z,3.16
2022-11-29T19:16:59.049Z,3.17
2022-11-29T19:22:01.064Z,3.16
2022-11-29T19:27:04.663Z,3.13
2022-11-29T19:32:08.506Z,3.13
2022-11-29T19:37:10.582Z,3.06
2022-11-29T19:42:12.762Z,3.04
2022-11-29T19:47:14.776Z,3.05
2022-11-29T19:52:16.838Z,2.90
2022-11-29T19:57:18.826Z,2.87
